createdAt,value
2018-04-24T00:03:37.943Z,12.80
2018-04-24T00:13:45.491Z,12.60
2018-04-24T00:18:50.095Z,12.60
2018-04-24T00:23:55.194Z,12.50
2018-04-24T00:28:59.055Z,12.50
2018-04-24T00:34:03.879Z,12.50
2018-04-24T00:49:16.793Z,12.30
2018-04-24T00:54:20.278Z,12.10
2018-04-24T00:59:24.432Z,12.10
2018-04-24T01:09:31.955Z,12.00
2018-04-24T01:14:35.083Z,12.00
2018-04-24T01:19:38.961Z,12.00
2018-04-24T01:29:47.632Z,11.90
2018-04-24T01:34:52.095Z,11.80
2018-04-24T01:39:55.971Z,11.60
2018-04-24T01:44:59.824Z,11.60
2018-04-24T01:50:04.079Z,11.50
2018-04-24T02:00:12.400Z,11.20
2018-04-24T02:20:29.799Z,10.90
2018-04-24T02:25:33.667Z,10.80
2018-04-24T02:30:36.828Z,10.70
2018-04-24T02:35:40.675Z,10.50
2018-04-24T02:40:43.783Z,10.50
2018-04-24T02:45:47.652Z,10.50
2018-04-24T02:50:51.147Z,10.40
2018-04-24T02:55:54.651Z,10.40
2018-04-24T03:06:03.164Z,10.00
2018-04-24T03:16:10.946Z,9.90
2018-04-24T03:21:14.047Z,9.90
2018-04-24T03:26:17.152Z,9.90
2018-04-24T03:31:20.634Z,9.70
2018-04-24T03:36:24.110Z,9.80
2018-04-24T03:41:28.767Z,9.80
2018-04-24T03:46:32.606Z,9.90
2018-04-24T03:56:41.713Z,9.90
2018-04-24T04:01:45.963Z,9.90
2018-04-24T04:11:54.400Z,9.80
2018-04-24T04:27:19.473Z,9.80
2018-04-24T04:32:24.462Z,9.80
2018-04-24T04:37:28.027Z,9.90
2018-04-24T04:47:36.307Z,9.90
2018-04-24T04:52:40.167Z,10.00
2018-04-24T04:57:43.794Z,10.10
2018-04-24T05:02:47.297Z,10.20
2018-04-24T05:07:51.141Z,10.30
2018-04-24T05:12:54.613Z,10.50
2018-04-24T05:18:00.122Z,10.60
2018-04-24T05:23:04.873Z,10.80
2018-04-24T05:38:18.146Z,11.20
2018-04-24T05:43:21.629Z,11.50
2018-04-24T05:48:25.625Z,11.70
2018-04-24T05:53:30.302Z,11.90
2018-04-24T06:03:38.381Z,12.20
2018-04-24T06:08:41.631Z,12.40
2018-04-24T06:13:45.086Z,12.60
2018-04-24T06:18:49.109Z,12.70
2018-04-24T06:23:52.573Z,12.90
2018-04-24T06:28:55.677Z,13.00
2018-04-24T06:33:58.764Z,13.20
2018-04-24T06:39:02.758Z,13.30
2018-04-24T06:44:06.986Z,13.60
2018-04-24T06:49:10.453Z,14.10
2018-04-24T06:54:14.075Z,14.40
2018-04-24T06:59:18.786Z,14.70
2018-04-24T07:04:22.780Z,15.10
2018-04-24T07:09:26.638Z,15.20
2018-04-24T07:14:29.863Z,16.00
2018-04-24T07:19:32.959Z,17.20
2018-04-24T07:24:36.134Z,17.90
2018-04-24T07:29:39.359Z,18.40
2018-04-24T07:34:43.202Z,18.70
2018-04-24T07:39:47.075Z,19.10
2018-04-24T07:49:54.598Z,19.70
2018-04-24T07:54:57.689Z,19.50
2018-04-24T08:00:01.907Z,19.60
2018-04-24T08:05:05.013Z,19.40
2018-04-24T08:10:08.106Z,19.90
2018-04-24T08:15:11.971Z,20.00
2018-04-24T08:20:15.047Z,19.50
2018-04-24T08:25:18.906Z,19.90
2018-04-24T08:30:23.130Z,20.30
2018-04-24T08:35:26.223Z,19.40
2018-04-24T08:40:30.074Z,19.30
2018-04-24T08:45:33.182Z,19.10
2018-04-24T08:50:37.063Z,18.70
2018-04-24T08:55:41.273Z,18.30
2018-04-24T09:00:44.373Z,17.70
2018-04-24T09:05:47.449Z,17.60
2018-04-24T09:10:52.053Z,17.40
2018-04-24T09:15:56.271Z,17.30
2018-04-24T09:20:59.776Z,17.50
2018-04-24T09:26:03.279Z,17.60
2018-04-24T09:31:06.354Z,17.60
2018-04-24T09:36:09.441Z,17.50
2018-04-24T09:41:13.300Z,17.40
2018-04-24T09:51:22.250Z,17.20
2018-04-24T09:56:26.057Z,17.00
2018-04-24T10:01:29.899Z,17.10
2018-04-24T10:06:33.390Z,17.00
2018-04-24T10:11:37.634Z,17.20
2018-04-24T10:42:02.934Z,18.40
2018-04-24T10:47:07.170Z,18.60
2018-04-24T11:02:19.921Z,18.70
2018-04-24T11:07:23.769Z,18.70
2018-04-24T11:17:31.293Z,18.80
2018-04-24T11:22:34.369Z,18.80
2018-04-24T11:27:38.969Z,18.90
2018-04-24T11:32:43.569Z,18.90
2018-04-24T11:37:47.058Z,18.90
2018-04-24T11:42:51.651Z,19.20
2018-04-24T11:52:59.921Z,19.70
2018-04-24T11:58:03.773Z,19.80
2018-04-24T12:03:06.875Z,19.60
2018-04-24T12:08:11.106Z,19.80
2018-04-24T12:28:27.902Z,19.80
2018-04-24T12:33:31.744Z,19.80
2018-04-24T12:38:34.830Z,19.80
2018-04-24T12:43:38.682Z,19.80
2018-04-24T12:48:42.521Z,19.80
2018-04-24T12:53:45.597Z,19.90
2018-04-24T12:58:48.678Z,19.90
2018-04-24T13:03:51.817Z,19.90
2018-04-24T13:08:55.978Z,20.00
2018-04-24T13:13:59.842Z,19.90
2018-04-24T13:24:08.865Z,19.70
2018-04-24T13:29:11.945Z,19.80
2018-04-24T13:34:15.022Z,19.80
2018-04-24T13:39:19.256Z,19.80
2018-04-24T13:44:23.104Z,20.00
2018-04-24T13:49:26.600Z,20.00
2018-04-24T13:59:34.882Z,19.90
2018-04-24T14:04:37.965Z,19.70
2018-04-24T14:09:42.200Z,19.60
2018-04-24T14:14:46.049Z,19.50
2018-04-24T14:24:54.322Z,19.50
2018-04-24T14:29:57.401Z,19.50
2018-04-24T14:45:09.785Z,19.10
2018-04-24T14:50:14.006Z,19.10
2018-04-24T14:55:17.474Z,19.10
2018-04-24T15:00:20.958Z,19.00
2018-04-24T15:10:28.454Z,19.10
2018-04-24T15:15:31.542Z,19.10
2018-04-24T15:20:34.694Z,19.20
2018-04-24T15:30:42.546Z,19.10
2018-04-24T15:35:46.785Z,19.20
2018-04-24T15:45:54.690Z,19.30
2018-04-24T15:50:58.181Z,19.30
2018-04-24T15:56:02.023Z,19.40
2018-04-24T16:06:09.548Z,19.20
2018-04-24T16:26:25.957Z,18.90
2018-04-24T16:31:29.050Z,18.80
2018-04-24T16:46:40.993Z,18.80
2018-04-24T16:56:49.269Z,18.70
2018-04-24T17:01:53.945Z,18.60
2018-04-24T17:06:57.018Z,18.50
2018-04-24T17:17:04.945Z,18.40
2018-04-24T17:22:08.042Z,18.30
2018-04-24T17:27:11.889Z,18.30
2018-04-24T17:32:15.386Z,18.20
2018-04-24T17:37:19.258Z,18.10
2018-04-24T17:42:22.322Z,18.00
2018-04-24T17:47:26.162Z,17.90
2018-04-24T17:52:29.250Z,17.90
2018-04-24T17:57:33.106Z,17.80
2018-04-24T18:02:37.332Z,17.80
2018-04-24T18:07:40.418Z,17.70
2018-04-24T18:17:48.327Z,17.60
2018-04-24T18:27:57.370Z,17.60
2018-04-24T18:33:01.231Z,17.50
2018-04-24T18:38:05.872Z,17.40
2018-04-24T18:43:10.113Z,17.30
2018-04-24T18:48:13.197Z,17.20
2018-04-24T18:53:17.111Z,17.00
2018-04-24T18:58:20.127Z,16.90
2018-04-24T19:03:24.366Z,16.80
2018-04-24T19:08:27.498Z,16.80
2018-04-24T19:13:31.343Z,16.70
2018-04-24T19:18:40.062Z,16.70
2018-04-24T19:28:47.578Z,16.50
2018-04-24T19:33:50.678Z,16.40
2018-04-24T19:39:00.112Z,16.30
2018-04-24T19:44:03.614Z,16.30
2018-04-24T19:49:13.398Z,16.20
2018-04-24T19:54:17.578Z,16.20
2018-04-24T19:59:21.834Z,16.20
2018-04-24T20:09:29.814Z,16.10
2018-04-24T20:19:37.730Z,16.20
2018-04-24T20:24:40.822Z,16.20
2018-04-24T20:29:43.902Z,16.20
2018-04-24T20:34:47.015Z,16.10
2018-04-24T20:44:55.271Z,16.00
2018-04-24T21:00:08.311Z,15.90
2018-04-24T21:05:12.467Z,15.90
2018-04-24T21:15:21.484Z,15.80
2018-04-24T21:20:25.698Z,15.80
2018-04-24T21:25:28.781Z,15.80
2018-04-24T21:30:32.655Z,15.70
2018-04-24T21:40:41.735Z,15.50
2018-04-24T21:50:50.042Z,15.00
2018-04-24T21:55:53.537Z,14.80
2018-04-24T22:00:57.385Z,14.70
2018-04-24T22:06:00.474Z,14.70
2018-04-24T22:11:03.966Z,14.80
2018-04-24T22:16:07.819Z,14.80
2018-04-24T22:21:10.992Z,14.80
2018-04-24T22:26:15.140Z,14.80
2018-04-24T22:36:23.435Z,14.90
2018-04-24T22:41:28.018Z,15.00
2018-04-24T22:46:31.104Z,15.00
2018-04-24T22:51:34.198Z,15.00
2018-04-24T22:56:38.041Z,15.00
2018-04-24T23:01:41.901Z,14.90
2018-04-24T23:06:45.745Z,14.90
2018-04-24T23:22:30.452Z,15.00
2018-04-24T23:27:34.229Z,14.90
2018-04-24T23:32:37.705Z,15.00
2018-04-24T23:37:40.787Z,14.90
2018-04-24T23:42:43.898Z,14.90
2018-04-24T23:47:47.760Z,14.90
2018-04-24T23:52:51.265Z,14.80
